AirNav   Air Wisconsin Up To $57,000 Bonus
 
 1360 users online  

TN66 Austin Field Airport
Pikeville, Tennessee, USA

GOING TO PIKEVILLE?


FAA INFORMATION EFFECTIVE 28 JANUARY 2021

Location

FAA Identifier: TN66
Lat/Long: 35-44-40.2460N 085-02-49.8380W
35-44.670767N 085-02.830633W
35.7445128,-85.0471772
(estimated)
Elevation: 1000 ft. / 305 m (estimated)
Variation: 02W (1990)
From city: 11 miles NE of PIKEVILLE, TN
Time zone: UTC -6 (UTC -5 during Daylight Saving Time)
Zip code: 37367

Airport Operations

Airport use: Private use. Permission required prior to landing
Activation date: 05/1992
Control tower: no
ARTCC: ATLANTA CENTER
FSS: NASHVILLE FLIGHT SERVICE STATION
Attendance: UNATNDD
Wind indicator: yes
Segmented circle: no

Airport Communications

WX ASOS at CSV (13 nm N): 120.625 (931-456-4406)
WX AWOS-3 at 2A0 (16 nm S): 135.075 (423-775-4695)

Nearby radio navigation aids

VOR radial/distance  VOR name  Freq  Var
HCHr239/4.0HINCH MOUNTAIN VOR/DME117.6002W

 
NDB name  Hdg/Dist  Freq  Var  ID
MARK ANTON344/16.739404WDTE -.. - .
HUCHN122/30.023303WHEM .... . --
MC MINN COUNTY315/31.724203WMMI -- -- ..
DAISY011/35.134102WCQN -.-. --.- -.

Airport Services

Runway Information

Runway 6/24

Dimensions: 2100 x 100 ft. / 640 x 30 m
Surface: turf, in good condition
RUNWAY 6  RUNWAY 24
Traffic pattern: leftleft
Obstructions: 100 ft. hill, 3000 ft. from runwaynone

Airport Ownership and Management from official FAA records

Ownership: Privately-owned
Owner: JOHN L. AUSTIN
210 TURKEY TROT LN
PIKEVILLE, TN 37367
Phone 423-533-2279
Manager: JOHN L. AUSTIN
210 TURKEY TROT LN
PIKEVILLE, TN 37367
Phone 423-533-2279

Airport Operational Statistics

Aircraft based on the field: 2
Single engine airplanes: 2
    

Additional Remarks

FOR CD CTC ATLANTA ARTCC AT 770-210-7692.

Instrument Procedures

There are no published instrument procedures at TN66.

Some nearby airports with instrument procedures:

KCSV - Crossville Memorial Airport-Whitson Field (13 nm N)
2A0 - Mark Anton Airport (16 nm S)
KRKW - Rockwood Municipal Airport (20 nm NE)
KSRB - Upper Cumberland Regional Airport (30 nm NW)
KMMI - McMinn County Airport (31 nm SE)
 
Loc | Ops | Rwys | IFR | FBO | Links
Com | Nav | Svcs | Stats | Notes
Area around TN66 (Austin Field Airport)
 
Road maps at: MapQuest Bing Google
 
Aerial photo
WARNING: Photo may not be current or correct
Aerial photo of TN66 (Austin Field Airport)
Do you have a better or more recent aerial photo of Austin Field Airport that you would like to share? If so, please send us your photo.

 
Sectional chart

 
Airport distance calculator
Flying to Austin Field Airport? Find the distance to fly.

From to TN66

Sunrise and sunset
Times for 28-Jan-2021
 Local
(UTC-6)
 Zulu
(UTC)
Morning civil twilight06:1712:17
Sunrise06:4412:44
Sunset17:0223:02
Evening civil twilight17:2923:29

Current date and time
Zulu (UTC)  28-Jan-2021 16:19:22
Local (UTC-6)  28-Jan-2021 10:19:22
 
METAR
KCSV 
12nm N 
281553Z AUTO 02009KT 10SM FEW017 BKN023 BKN029 M03/M09 A3051 RMK AO2 SLP349 T10331089
K2A0 
16nm S 
281555Z AUTO 36009G14KT 10SM OVC028 01/M05 A3057 RMK A01
KRKW 
20nm NE 
281555Z AUTO VRB05G16KT 10SM BKN026 OVC032 M03/M09 A3052 RMK A01
TAF
KCSV 
12nm N 
281137Z 2812/2912 35008G14KT P6SM BKN012 TEMPO 2813/2816 SCT012 FM281600 36008KT P6SM SKC FM290400 04003KT P6SM SCT200
NOTAMs
Click for the latest NOTAMs
NOTAMs are issued by the DoD/FAA and will open in a separate window not controlled by AirNav.

 

 
 

Would you like to see your business listed on this page?

 If your business provides an interesting product or service to pilots, flight crews, aircraft, or users of the Austin Field Airport, you should consider listing it here.  To start the listing process, click on the button below
 
Add a business
 

Other Pages about Austin Field Airport

Update a link
 
Copyright © AirNav, LLC. All rights reserved. Privacy Policy  Contact